Time;durP1;ratioP1;P1;durP2;ratioP2;P2;SDS_P1;SDS_P2;PMS_P1;PMS_P2;Temp;Humidity;BMP_temperature;BMP_pressure;BME280_temperature;BME280_humidity;BME280_pressure;Samples;Min_cycle;Max_cycle;Signal;HPM_P1;HPM_P2
2022/07/02 00:00:59;;;;;;;7.35;5.90;;;;;;;31.53;34.75;98520.31;5093332;28;20113;-78
2022/07/02 00:03:34;;;;;;;6.10;5.40;;;;;;;32.48;33.92;98524.31;5093312;28;20066;-78
2022/07/02 00:06:06;;;;;;;5.85;5.10;;;;;;;32.99;33.54;98522.13;5093330;28;20541;-78
2022/07/02 00:08:33;;;;;;;6.00;5.57;;;;;;;33.02;32.91;98511.88;5091945;28;20394;-78
2022/07/02 00:11:11;;;;;;;8.05;6.93;;;;;;;32.14;33.48;98516.25;5075215;28;20047;-77
2022/07/02 00:13:38;;;;;;;7.28;6.60;;;;;;;32.73;33.47;98509.66;5073043;28;20033;-78
2022/07/02 00:16:06;;;;;;;6.88;6.32;;;;;;;32.89;32.77;98508.44;5073003;28;20107;-77
2022/07/02 00:18:35;;;;;;;7.20;6.60;;;;;;;33.14;32.19;98511.59;5073213;28;20111;-78
2022/07/02 00:21:05;;;;;;;8.30;6.93;;;;;;;32.85;32.18;98516.38;5073015;28;20033;-77
2022/07/02 00:23:31;;;;;;;6.00;5.40;;;;;;;33.27;31.86;98523.53;5072776;28;20028;-78
2022/07/02 00:26:20;;;;;;;7.72;7.03;;;;;;;32.74;31.94;98523.38;5080344;28;20058;-78
2022/07/02 00:28:53;;;;;;;10.82;7.10;;;;;;;32.44;32.34;98515.16;5093033;28;20039;-78
2022/07/02 00:31:20;;;;;;;10.90;9.75;;;;;;;31.87;33.23;98519.91;5093126;28;20035;-77
2022/07/02 00:33:52;;;;;;;7.93;7.22;;;;;;;31.22;34.24;98511.94;5092946;28;20086;-78
2022/07/02 00:36:26;;;;;;;9.38;7.78;;;;;;;31.43;34.18;98508.16;5092906;28;20085;-78
2022/07/02 00:38:55;;;;;;;7.80;7.10;;;;;;;31.64;34.04;98493.00;5096294;28;20035;-78
2022/07/02 00:41:25;;;;;;;9.30;6.38;;;;;;;31.86;33.21;98496.41;5097040;28;20039;-77
2022/07/02 00:43:52;;;;;;;7.17;6.47;;;;;;;31.71;33.27;98498.34;5081245;28;20107;-77
2022/07/02 00:46:19;;;;;;;8.20;7.40;;;;;;;31.48;33.92;98490.50;5081063;28;20273;-78
2022/07/02 00:48:45;;;;;;;10.82;6.78;;;;;;;31.72;32.99;98485.72;5096891;28;20032;-78
2022/07/02 00:51:11;;;;;;;9.27;6.57;;;;;;;31.53;33.07;98494.75;5096780;28;20028;-78
2022/07/02 00:53:38;;;;;;;9.68;7.90;;;;;;;31.54;33.33;98487.78;5096493;28;20036;-78
2022/07/02 00:56:06;;;;;;;6.75;6.15;;;;;;;32.05;32.76;98465.91;5091925;28;20396;-78
2022/07/02 00:58:33;;;;;;;8.95;7.28;;;;;;;32.23;31.92;98456.53;5085718;28;20044;-78
2022/07/02 01:01:02;;;;;;;8.27;6.00;;;;;;;32.47;31.44;98455.28;5076865;28;20060;-78
2022/07/02 01:03:30;;;;;;;6.65;5.00;;;;;;;32.92;31.04;98448.53;5076301;28;20495;-78
2022/07/02 01:06:02;;;;;;;6.18;4.90;;;;;;;33.01;30.58;98450.50;5076175;28;20024;-78
2022/07/02 01:11:20;;;;;;;4.93;4.18;;;;;;;33.14;30.64;98426.22;5076409;28;20044;-78
2022/07/02 01:13:47;;;;;;;4.55;4.15;;;;;;;33.28;30.06;98422.59;5075987;28;20033;-78
2022/07/02 01:16:13;;;;;;;4.50;4.10;;;;;;;33.40;30.20;98423.59;5076979;28;20029;-78
2022/07/02 01:18:42;;;;;;;7.53;5.53;;;;;;;32.97;30.83;98445.00;5096368;28;20035;-78
2022/07/02 01:21:08;;;;;;;5.05;4.55;;;;;;;32.70;31.32;98448.03;5096488;28;20031;-78
2022/07/02 01:23:39;;;;;;;5.88;4.50;;;;;;;32.95;30.71;98452.47;5088020;28;20097;-78
2022/07/02 01:26:05;;;;;;;4.45;3.70;;;;;;;32.91;30.83;98457.56;5076097;28;20102;-79
2022/07/02 01:28:36;;;;;;;4.80;4.35;;;;;;;32.97;30.56;98466.97;5075695;28;20079;-78
2022/07/02 01:31:02;;;;;;;;;;;;;;;32.63;31.62;98471.94;5076243;28;20135;-78
2022/07/02 01:33:28;;;;;;;6.03;5.45;;;;;;;32.41;31.75;98479.97;5076242;28;19912;-78
2022/07/02 01:35:57;;;;;;;8.13;6.78;;;;;;;32.00;32.05;98477.91;5075694;28;20426;-77
2022/07/02 01:38:23;;;;;;;6.63;5.50;;;;;;;31.92;32.54;98474.63;5075604;28;20085;-78
2022/07/02 01:40:49;;;;;;;8.50;5.38;;;;;;;32.40;31.68;98472.69;5075643;28;20102;-77
2022/07/02 01:43:18;;;;;;;7.13;6.22;;;;;;;32.17;32.21;98470.59;5075579;28;20033;-77
2022/07/02 01:45:44;;;;;;;5.93;5.32;;;;;;;31.74;32.67;98476.72;5075192;28;20086;-78
2022/07/02 01:48:10;;;;;;;10.80;6.55;;;;;;;31.66;33.29;98470.59;5075205;28;20044;-78
2022/07/02 01:50:39;;;;;;;6.60;4.90;;;;;;;32.17;31.89;98469.81;5079685;28;20387;-78
2022/07/02 01:53:05;;;;;;;4.78;4.28;;;;;;;32.59;31.58;98479.88;5095620;28;20054;-78
2022/07/02 01:55:33;;;;;;;8.77;5.82;;;;;;;32.72;31.12;98476.81;5095585;28;20109;-78
2022/07/02 01:58:00;;;;;;;4.75;4.35;;;;;;;32.80;31.18;98480.84;5095126;28;20372;-78
2022/07/02 02:00:26;;;;;;;5.70;4.75;;;;;;;33.10;30.52;98471.16;5095411;28;20028;-78
2022/07/02 02:02:53;;;;;;;4.18;3.78;;;;;;;32.44;31.26;98478.97;5095369;28;20034;-77
2022/07/02 02:05:21;;;;;;;5.78;4.80;;;;;;;32.59;31.51;98487.63;5095440;28;20024;-78
2022/07/02 02:07:47;;;;;;;4.60;4.00;;;;;;;32.65;31.04;98482.84;5088483;28;20028;-78
2022/07/02 02:10:15;;;;;;;4.00;3.70;;;;;;;32.45;31.35;98493.97;5074991;28;20108;-78
2022/07/02 02:12:41;;;;;;;4.40;4.00;;;;;;;32.79;30.78;98513.44;5074887;28;20396;-78
2022/07/02 02:15:08;;;;;;;4.93;4.30;;;;;;;31.63;32.33;98514.13;5074892;28;20083;-77
2022/07/02 02:17:36;;;;;;;6.28;5.15;;;;;;;32.51;31.46;98521.31;5074749;28;20060;-78
2022/07/02 02:20:03;;;;;;;6.22;5.07;;;;;;;31.67;32.80;98519.66;5081161;28;20077;-77
2022/07/02 02:22:32;;;;;;;7.05;5.82;;;;;;;30.62;33.73;98525.84;5083323;28;20040;-78
2022/07/02 02:25:03;;;;;;;6.88;5.13;;;;;;;30.17;34.77;98529.25;5087532;28;20025;-78
2022/07/02 02:27:31;;;;;;;5.75;5.25;;;;;;;31.37;33.23;98529.88;5094855;28;20044;-78
2022/07/02 02:29:59;;;;;;;10.40;6.78;;;;;;;31.70;32.80;98530.03;5094727;28;20036;-78
2022/07/02 02:32:26;;;;;;;11.95;8.95;;;;;;;30.85;34.48;98545.09;5081537;28;20048;-77
2022/07/02 02:34:54;;;;;;;7.72;5.97;;;;;;;31.22;33.50;98549.59;5074304;28;20033;-78
2022/07/02 02:37:20;;;;;;;5.35;4.88;;;;;;;31.33;32.83;98543.44;5075268;28;20052;-77
2022/07/02 02:39:48;;;;;;;5.32;4.65;;;;;;;31.72;32.57;98564.41;5085468;28;20115;-78
2022/07/02 02:42:24;;;;;;;7.93;6.43;;;;;;;32.61;31.34;98561.84;5075195;28;20024;-78
2022/07/02 02:44:53;;;;;;;6.15;5.53;;;;;;;32.80;30.54;98560.50;5080773;28;20146;-77
2022/07/02 02:47:21;;;;;;;5.90;4.90;;;;;;;32.82;30.47;98560.78;5094524;28;20039;-78
2022/07/02 02:49:50;;;;;;;6.85;5.07;;;;;;;33.04;30.08;98560.53;5094314;28;20059;-78
2022/07/02 02:52:17;;;;;;;8.00;5.90;;;;;;;31.78;31.43;98566.16;5094593;28;20032;-78
2022/07/02 02:54:43;;;;;;;12.10;7.95;;;;;;;31.93;31.74;98571.97;5094418;28;20074;-78
2022/07/02 02:57:12;;;;;;;17.52;10.48;;;;;;;31.57;32.53;98580.53;5094626;28;20040;-78
2022/07/02 02:59:41;;;;;;;11.23;8.10;;;;;;;31.59;32.52;98578.81;5080329;28;20102;-78
2022/07/02 03:02:07;;;;;;;11.15;9.00;;;;;;;31.67;31.98;98576.44;5073120;28;20036;-78
2022/07/02 03:04:38;;;;;;;13.27;8.90;;;;;;;32.07;31.20;98577.81;5073680;28;20037;-78
2022/07/02 03:07:04;;;;;;;8.82;7.75;;;;;;;31.14;33.16;98579.53;5073880;28;20106;-77
2022/07/02 03:09:33;;;;;;;11.75;9.07;;;;;;;30.91;32.93;98570.81;5081596;28;20039;-77
2022/07/02 03:12:01;;;;;;;8.63;7.45;;;;;;;31.01;33.13;98575.25;5093996;28;20376;-78
2022/07/02 03:14:27;;;;;;;8.95;8.05;;;;;;;31.02;32.98;98576.81;5077504;28;20099;-78
2022/07/02 03:16:56;;;;;;;9.90;8.43;;;;;;;31.10;33.36;98570.38;5073697;28;20037;-78
2022/07/02 03:19:29;;;;;;;8.93;8.07;;;;;;;31.09;33.08;98580.16;5073396;28;20386;-78
2022/07/02 03:21:55;;;;;;;11.60;9.77;;;;;;;30.80;33.65;98579.75;5073697;28;20115;-78
2022/07/02 03:24:22;;;;;;;8.20;7.40;;;;;;;31.36;32.72;98580.19;5073567;28;20028;-78
2022/07/02 03:26:48;;;;;;;9.27;8.38;;;;;;;31.66;32.35;98592.69;5073830;28;20056;-78
2022/07/02 03:29:15;;;;;;;9.48;7.88;;;;;;;31.66;32.65;98601.19;5073446;28;20043;-78
2022/07/02 03:31:41;;;;;;;8.68;7.78;;;;;;;31.87;32.31;98605.91;5073616;28;20036;-78
2022/07/02 03:34:07;;;;;;;8.52;7.82;;;;;;;31.98;32.17;98603.41;5089956;28;20379;-78
2022/07/02 03:36:33;;;;;;;13.15;9.30;;;;;;;32.03;31.65;98611.28;5093528;28;20384;-77
2022/07/02 03:39:01;;;;;;;9.57;7.72;;;;;;;32.11;31.63;98610.97;5093605;28;20031;-77
2022/07/02 03:41:27;;;;;;;7.40;6.80;;;;;;;32.05;31.61;98614.44;5093613;28;20032;-78
2022/07/02 03:43:56;;;;;;;8.95;8.05;;;;;;;31.80;32.02;98611.91;5093423;28;20513;-77
2022/07/02 03:46:23;;;;;;;9.65;8.65;;;;;;;31.16;33.05;98630.13;5085773;28;20497;-77
2022/07/02 03:48:49;;;;;;;8.85;7.60;;;;;;;30.86;33.13;98642.28;5073225;28;20037;-77
2022/07/02 03:51:20;;;;;;;11.02;9.15;;;;;;;31.02;33.79;98634.34;5073391;28;20484;-78
2022/07/02 03:53:49;;;;;;;8.27;7.47;;;;;;;31.01;33.18;98638.44;5073205;28;20056;-77
2022/07/02 03:56:15;;;;;;;7.30;6.60;;;;;;;31.45;32.84;98650.41;5073396;28;20491;-78
2022/07/02 03:58:41;;;;;;;9.70;7.82;;;;;;;31.58;32.47;98648.19;5072897;28;20566;-77
2022/07/02 04:01:07;;;;;;;6.38;5.75;;;;;;;31.71;31.94;98654.53;5073927;28;20055;-77
2022/07/02 04:03:34;;;;;;;10.05;9.05;;;;;;;31.99;31.56;98650.44;5084421;28;20039;-77
2022/07/02 04:06:00;;;;;;;9.50;8.60;;;;;;;32.41;30.91;98661.09;5073249;28;20025;-77
2022/07/02 04:08:46;;;;;;;6.30;5.70;;;;;;;31.39;32.40;98672.13;5072886;28;20040;-77
2022/07/02 04:11:12;;;;;;;8.48;6.10;;;;;;;31.94;32.13;98662.41;5082048;28;20031;-77
2022/07/02 04:13:41;;;;;;;7.32;6.63;;;;;;;31.63;32.21;98664.59;5098985;28;20059;-77
2022/07/02 04:16:12;;;;;;;8.23;6.15;;;;;;;32.11;31.31;98664.94;5099687;28;20032;-77
2022/07/02 04:18:38;;;;;;;6.13;5.53;;;;;;;32.51;31.01;98669.16;5083196;28;20032;-77
2022/07/02 04:21:04;;;;;;;5.93;5.43;;;;;;;32.62;30.67;98662.97;5099043;28;20043;-77
2022/07/02 04:23:30;;;;;;;8.15;7.45;;;;;;;32.49;30.64;98659.47;5098013;28;20024;-77
2022/07/02 04:25:59;;;;;;;5.20;4.78;;;;;;;32.11;31.06;98656.41;5099821;28;20067;-77
2022/07/02 04:28:27;;;;;;;9.02;6.70;;;;;;;32.37;30.63;98658.41;5099807;28;20028;-77
2022/07/02 04:31:01;;;;;;;5.32;4.82;;;;;;;32.39;31.24;98666.47;5099567;28;20093;-77
2022/07/02 04:33:27;;;;;;;6.57;5.97;;;;;;;31.73;31.53;98674.72;5099753;28;20032;-77
2022/07/02 04:35:53;;;;;;;6.63;6.03;;;;;;;32.17;31.26;98672.34;5099781;28;20032;-77
2022/07/02 04:38:22;;;;;;;6.32;5.75;;;;;;;31.99;31.21;98663.84;5081443;28;20441;-77
2022/07/02 04:40:50;;;;;;;6.00;5.50;;;;;;;32.29;31.23;98659.22;5097897;28;20035;-77
2022/07/02 04:43:28;;;;;;;;;;;;;;;;;;;;;
2022/07/02 04:45:55;;;;;;;6.40;5.80;;;;;;;32.09;30.89;98668.28;5093770;28;20511;-77
2022/07/02 04:48:21;;;;;;;10.65;6.72;;;;;;;32.18;30.98;98673.16;5079256;28;20043;-77
2022/07/02 04:50:47;;;;;;;7.60;5.78;;;;;;;32.32;31.07;98676.13;5079185;28;20028;-77
2022/07/02 04:53:15;;;;;;;7.28;6.18;;;;;;;32.30;31.00;98677.88;5079197;28;20044;-77
2022/07/02 04:55:41;;;;;;;6.63;6.05;;;;;;;32.64;30.31;98683.97;5079483;28;20028;-77
2022/07/02 04:58:07;;;;;;;5.68;5.18;;;;;;;33.05;30.01;98681.66;5087944;28;20056;-77
2022/07/02 05:00:35;;;;;;;5.60;5.10;;;;;;;32.71;29.97;98686.47;5099224;28;20036;-77
2022/07/02 05:03:07;;;;;;;9.75;8.77;;;;;;;32.41;30.82;98689.53;5099548;28;20111;-77
2022/07/02 05:05:40;;;;;;;6.28;5.75;;;;;;;32.09;31.34;98693.84;5099527;28;20484;-77
2022/07/02 05:08:06;;;;;;;6.32;5.78;;;;;;;32.77;30.21;98692.28;5099429;28;20068;-77
2022/07/02 05:10:32;;;;;;;5.97;5.43;;;;;;;32.79;30.04;98700.38;5093785;28;20016;-77
2022/07/02 05:13:03;;;;;;;6.65;6.05;;;;;;;32.66;30.44;98697.72;5087879;28;20075;-77
2022/07/02 05:15:32;;;;;;;5.32;4.90;;;;;;;32.80;30.27;98699.88;5086897;28;20373;-77
2022/07/02 05:18:01;;;;;;;4.57;4.18;;;;;;;33.21;29.66;98704.00;5079130;28;20093;-77
2022/07/02 05:20:28;;;;;;;5.13;4.72;;;;;;;33.48;29.38;98697.38;5093123;28;20032;-77
2022/07/02 05:22:54;;;;;;;5.00;4.60;;;;;;;33.58;28.82;98711.09;5099258;28;20024;-77
2022/07/02 05:25:22;;;;;;;5.95;5.15;;;;;;;32.81;29.41;98703.50;5095180;28;20123;-77
2022/07/02 05:27:49;;;;;;;4.82;4.43;;;;;;;33.00;29.63;98710.72;5095001;28;20044;-77
2022/07/02 05:30:21;;;;;;;4.88;4.47;;;;;;;32.93;30.04;98706.13;5096364;28;20036;-77
2022/07/02 05:32:54;;;;;;;5.82;5.32;;;;;;;32.30;30.70;98709.13;5080200;28;20539;-76
2022/07/02 05:35:20;;;;;;;6.25;5.75;;;;;;;32.46;30.42;98711.63;5075775;28;20028;-77
2022/07/02 05:37:46;;;;;;;5.60;5.10;;;;;;;32.03;31.24;98710.72;5076972;28;20035;-76
2022/07/02 05:40:22;;;;;;;7.10;6.50;;;;;;;32.22;31.25;98716.41;5086850;28;20055;-77
2022/07/02 05:42:48;;;;;;;4.88;4.47;;;;;;;31.10;32.34;98722.78;5075331;28;20129;-77
2022/07/02 05:45:22;;;;;;;5.18;4.68;;;;;;;31.48;32.03;98720.44;5075469;28;20033;-77
2022/07/02 05:47:48;;;;;;;5.68;5.15;;;;;;;30.81;32.76;98733.66;5079950;28;20028;-76
2022/07/02 05:50:16;;;;;;;6.10;5.55;;;;;;;31.52;32.01;98732.41;5057961;28;20081;-76
2022/07/02 05:52:42;;;;;;;5.53;4.78;;;;;;;31.61;31.64;98740.94;5091180;28;20131;-76
2022/07/02 05:55:19;;;;;;;6.05;5.45;;;;;;;31.80;31.28;98745.41;5077392;28;20118;-76
2022/07/02 05:57:45;;;;;;;7.28;6.57;;;;;;;31.95;31.23;98749.19;5095541;28;20052;-77
2022/07/02 06:00:12;;;;;;;7.03;6.32;;;;;;;31.51;31.51;98749.94;5095596;28;20055;-76
2022/07/02 06:02:40;;;;;;;6.40;5.78;;;;;;;31.92;31.82;98755.03;5095547;28;20020;-77
2022/07/02 06:07:58;;;;;;;10.18;9.13;;;;;;;31.37;32.21;98749.22;5075046;28;20048;-76
2022/07/02 06:10:25;;;;;;;8.55;7.65;;;;;;;31.35;32.23;98736.75;5090606;28;20020;-76
2022/07/02 06:12:52;;;;;;;8.40;7.50;;;;;;;31.52;32.27;98757.97;5094899;28;20028;-76
2022/07/02 06:15:21;;;;;;;7.82;7.03;;;;;;;31.85;31.59;98763.88;5095091;28;20028;-76
2022/07/02 06:17:48;;;;;;;9.43;8.40;;;;;;;31.32;31.34;98757.56;5095095;28;20553;-76
2022/07/02 06:20:17;;;;;;;7.95;7.15;;;;;;;31.61;31.32;98763.66;5082430;28;20035;-76
2022/07/02 06:22:43;;;;;;;7.20;6.55;;;;;;;32.14;31.00;98769.91;5091121;28;20039;-76
2022/07/02 06:25:10;;;;;;;10.73;7.35;;;;;;;32.34;31.14;98772.28;5094781;28;20032;-76
2022/07/02 06:27:38;;;;;;;8.88;7.60;;;;;;;32.08;30.68;98778.28;5095325;28;20476;-76
2022/07/02 06:30:08;;;;;;;12.98;8.75;;;;;;;32.09;31.00;98782.69;5094800;28;20552;-76
2022/07/02 06:32:37;;;;;;;9.88;7.82;;;;;;;31.98;31.14;98793.75;5094919;28;20024;-77
2022/07/02 06:35:11;;;;;;;12.68;8.93;;;;;;;32.14;30.36;98794.72;5094790;28;20216;-76
2022/07/02 06:37:42;;;;;;;9.02;7.38;;;;;;;32.51;30.68;98804.84;5095074;28;20060;-77
2022/07/02 06:40:08;;;;;;;;;;;;;;;32.14;30.54;98812.53;5085147;28;20035;-76
2022/07/02 06:42:37;;;;;;;8.88;7.43;;;;;;;32.46;30.54;98814.00;5074473;28;19958;-76
2022/07/02 06:45:03;;;;;;;9.57;7.28;;;;;;;32.38;30.38;98819.19;5074270;28;20032;-76
2022/07/02 06:47:30;;;;;;;8.90;8.00;;;;;;;32.27;30.21;98820.94;5074323;28;20439;-76
2022/07/02 06:50:00;;;;;;;7.32;6.60;;;;;;;32.01;31.00;98826.91;5074260;28;20441;-77
2022/07/02 06:52:29;;;;;;;8.97;8.07;;;;;;;31.87;31.29;98832.34;5076526;28;20029;-77
2022/07/02 06:54:57;;;;;;;9.32;8.10;;;;;;;31.64;31.44;98838.59;5094472;28;20274;-77
2022/07/02 06:57:26;;;;;;;13.05;8.45;;;;;;;31.37;31.48;98839.22;5082253;28;20044;-78
2022/07/02 06:59:59;;;;;;;11.50;9.73;;;;;;;31.26;32.45;98833.19;5074413;28;20040;-77
2022/07/02 07:02:27;;;;;;;9.75;8.25;;;;;;;31.82;31.82;98832.97;5074374;28;20103;-77
2022/07/02 07:04:56;;;;;;;11.88;10.52;;;;;;;31.39;31.75;98828.22;5086262;28;20395;-77
2022/07/02 07:07:37;;;;;;;16.63;8.93;;;;;;;31.22;32.26;98836.19;5075222;28;20032;-77
2022/07/02 07:10:04;;;;;;;9.52;8.50;;;;;;;31.25;32.47;98838.06;5093981;28;20039;-77
2022/07/02 07:12:30;;;;;;;9.77;8.77;;;;;;;31.19;31.84;98831.44;5094409;28;20107;-77
2022/07/02 07:15:03;;;;;;;13.48;9.55;;;;;;;31.79;31.42;98834.69;5077903;28;20036;-77
2022/07/02 07:17:29;;;;;;;8.00;7.10;;;;;;;31.44;32.15;98843.88;5083754;28;20039;-77
2022/07/02 07:19:55;;;;;;;8.77;7.75;;;;;;;31.75;31.72;98831.22;5083911;28;20032;-77
2022/07/02 07:22:24;;;;;;;12.43;8.57;;;;;;;31.55;31.61;98839.38;5073352;28;20028;-77
2022/07/02 07:24:50;;;;;;;7.63;6.82;;;;;;;31.57;31.92;98844.56;5073682;28;20384;-77
2022/07/02 07:27:18;;;;;;;6.95;6.25;;;;;;;31.83;31.29;98846.72;5073821;28;20063;-77
2022/07/02 07:29:44;;;;;;;11.65;10.07;;;;;;;31.57;32.15;98845.38;5073717;28;20041;-77
2022/07/02 07:32:10;;;;;;;10.98;9.88;;;;;;;31.77;31.45;98851.41;5074311;28;20032;-77
2022/07/02 07:34:36;;;;;;;6.18;5.57;;;;;;;32.15;31.24;98858.78;5073514;28;20032;-77
2022/07/02 07:37:04;;;;;;;9.00;6.18;;;;;;;31.56;32.33;98860.00;5073585;28;20033;-77
2022/07/02 07:39:33;;;;;;;8.02;7.07;;;;;;;31.79;32.12;98854.56;5073127;28;20039;-77
2022/07/02 07:41:59;;;;;;;8.52;6.05;;;;;;;31.82;31.58;98859.31;5073373;28;20503;-77
2022/07/02 07:44:25;;;;;;;8.20;6.35;;;;;;;31.98;31.37;98873.28;5073313;28;20430;-77
2022/07/02 07:46:59;;;;;;;7.38;6.05;;;;;;;31.94;31.77;98880.34;5072791;28;20060;-77
2022/07/02 07:49:28;;;;;;;8.95;7.32;;;;;;;32.30;30.47;98885.38;5073941;28;20040;-77
2022/07/02 07:51:56;;;;;;;8.45;6.85;;;;;;;31.99;30.95;98889.09;5073161;28;20553;-77
2022/07/02 07:54:22;;;;;;;8.30;6.75;;;;;;;32.33;30.70;98885.19;5072802;28;20097;-77
2022/07/02 07:56:48;;;;;;;7.15;6.10;;;;;;;32.49;30.60;98892.63;5055088;28;20071;-77
2022/07/02 07:59:14;;;;;;;5.68;5.07;;;;;;;32.01;30.47;98889.41;5072887;28;20045;-77
2022/07/02 08:01:42;;;;;;;8.13;6.90;;;;;;;31.99;31.04;98900.44;5073195;28;20036;-77
2022/07/02 08:04:13;;;;;;;7.65;6.82;;;;;;;31.96;31.04;98904.22;5073933;28;20033;-77
2022/07/02 08:06:48;;;;;;;8.10;7.00;;;;;;;31.80;31.11;98912.16;5086120;28;20081;-77
2022/07/02 08:09:17;;;;;;;13.85;7.80;;;;;;;32.59;30.72;98906.44;5072895;28;20047;-77
2022/07/02 08:11:46;;;;;;;6.97;6.28;;;;;;;32.85;29.60;98898.38;5073073;28;20035;-77
2022/07/02 08:14:12;;;;;;;8.32;7.45;;;;;;;32.76;29.78;98909.75;5072989;28;20560;-77
2022/07/02 08:16:43;;;;;;;8.02;7.05;;;;;;;32.94;29.48;98906.09;5073483;28;20031;-77
2022/07/02 08:19:09;;;;;;;7.93;6.38;;;;;;;33.11;29.61;98908.19;5072870;28;20043;-77
2022/07/02 08:21:35;;;;;;;7.68;6.90;;;;;;;33.28;29.28;98909.41;5076202;28;20098;-77
2022/07/02 08:24:04;;;;;;;7.35;6.57;;;;;;;33.57;28.76;98903.19;5072800;28;20024;-78
2022/07/02 08:26:30;;;;;;;9.23;6.88;;;;;;;33.39;29.78;98900.38;5077452;28;20036;-77
2022/07/02 08:28:56;;;;;;;7.70;6.35;;;;;;;33.10;29.78;98908.63;5079811;28;20036;-77
2022/07/02 08:31:25;;;;;;;8.30;7.20;;;;;;;33.04;30.28;98904.88;5093048;28;20074;-77
2022/07/02 08:33:54;;;;;;;8.52;7.63;;;;;;;32.79;30.04;98897.44;5077157;28;20032;-77
2022/07/02 08:36:20;;;;;;;7.53;6.65;;;;;;;32.62;29.97;98885.59;5092963;28;20024;-77
2022/07/02 08:38:48;;;;;;;9.50;8.05;;;;;;;32.73;30.43;98888.72;5086652;28;20039;-77
2022/07/02 08:41:21;;;;;;;7.70;6.88;;;;;;;32.58;30.40;98892.69;5079713;28;20369;-77
2022/07/02 08:43:51;;;;;;;10.02;7.88;;;;;;;32.79;29.89;98896.63;5092944;28;20134;-77
2022/07/02 08:46:21;;;;;;;7.25;5.88;;;;;;;32.83;30.08;98891.56;5092864;28;20025;-78
2022/07/02 08:48:50;;;;;;;7.80;6.80;;;;;;;33.02;30.02;98904.56;5090315;28;20032;-77
2022/07/02 08:51:20;;;;;;;9.38;6.82;;;;;;;33.09;29.47;98913.56;5071184;28;20029;-77
2022/07/02 08:53:47;;;;;;;11.07;8.38;;;;;;;32.82;30.31;98912.75;5078343;28;20178;-77
2022/07/02 08:56:14;;;;;;;7.35;6.55;;;;;;;32.74;29.97;98909.44;5082880;28;20028;-77
2022/07/02 08:58:40;;;;;;;7.32;6.63;;;;;;;32.83;29.80;98920.03;5072278;28;20045;-77
2022/07/02 09:01:08;;;;;;;6.00;5.40;;;;;;;33.28;29.60;98923.63;5076467;28;20111;-78
2022/07/02 09:03:37;;;;;;;7.40;6.60;;;;;;;33.70;29.10;98917.25;5076337;28;20059;-78
2022/07/02 09:06:08;;;;;;;5.90;5.40;;;;;;;33.46;29.62;98919.97;5076054;28;20484;-78
2022/07/02 09:08:35;;;;;;;;;;;;;;;33.36;29.46;98922.03;5092388;28;20037;-78
2022/07/02 09:11:01;;;;;;;6.65;5.18;;;;;;;33.41;29.66;98920.59;5087127;28;20283;-78
2022/07/02 09:13:31;;;;;;;6.40;5.75;;;;;;;33.22;29.51;98919.84;5084112;28;20036;-78
2022/07/02 09:16:07;;;;;;;5.63;5.15;;;;;;;33.31;29.54;98922.69;5076159;28;20025;-78
2022/07/02 09:18:34;;;;;;;6.32;5.72;;;;;;;33.47;29.28;98930.06;5076184;28;20488;-77
2022/07/02 09:21:00;;;;;;;6.07;5.47;;;;;;;32.77;29.97;98928.38;5075573;28;20044;-78
2022/07/02 09:23:28;;;;;;;7.15;6.45;;;;;;;32.61;29.87;98923.00;5076052;28;20028;-78
2022/07/02 09:25:57;;;;;;;6.63;5.93;;;;;;;32.71;30.06;98921.75;5058538;28;20033;-78
2022/07/02 09:28:23;;;;;;;6.22;5.68;;;;;;;32.49;30.33;98923.91;5075713;28;20113;-78
2022/07/02 09:30:53;;;;;;;7.53;6.82;;;;;;;32.27;31.02;98918.34;5076552;28;20074;-78
2022/07/02 09:33:31;;;;;;;9.15;6.47;;;;;;;32.12;30.43;98919.41;5075784;28;20464;-78
2022/07/02 09:36:09;;;;;;;6.85;6.15;;;;;;;32.18;31.17;98926.88;5096343;28;20024;-78
2022/07/02 09:38:47;;;;;;;7.25;6.50;;;;;;;32.51;30.81;98915.75;5096340;28;20063;-78
2022/07/02 09:41:18;;;;;;;7.32;6.63;;;;;;;32.42;30.46;98932.75;5095994;28;20032;-78
2022/07/02 09:44:02;;;;;;;6.25;5.65;;;;;;;32.30;30.84;98930.84;5095888;28;20028;-78
2022/07/02 09:46:29;;;;;;;6.80;6.20;;;;;;;32.63;30.38;98929.81;5091412;28;20052;-78
2022/07/02 09:49:07;;;;;;;7.35;6.60;;;;;;;32.53;30.39;98933.91;5075351;28;20048;-78
2022/07/02 09:51:35;;;;;;;5.28;4.78;;;;;;;32.91;29.80;98933.44;5076194;28;20028;-78
2022/07/02 09:54:01;;;;;;;6.25;5.75;;;;;;;32.74;29.79;98938.66;5095981;28;20423;-78
2022/07/02 09:56:30;;;;;;;6.80;6.20;;;;;;;32.50;30.29;98928.38;5095474;28;20476;-78
2022/07/02 09:58:56;;;;;;;7.70;6.82;;;;;;;32.38;29.89;98927.22;5095338;28;20040;-78
2022/07/02 10:01:23;;;;;;;5.85;5.25;;;;;;;32.71;29.99;98928.25;5095735;28;20077;-78
2022/07/02 10:03:53;;;;;;;5.90;5.40;;;;;;;32.95;29.43;98927.59;5088894;28;20040;-78
2022/07/02 10:06:24;;;;;;;5.97;5.38;;;;;;;33.26;29.24;98931.06;5085466;28;20037;-78
2022/07/02 10:08:52;;;;;;;5.85;5.15;;;;;;;33.39;29.08;98938.19;5073851;28;20111;-78
2022/07/02 10:11:20;;;;;;;6.40;5.80;;;;;;;33.42;28.48;98931.50;5074719;28;20029;-78
2022/07/02 10:13:48;;;;;;;5.75;5.22;;;;;;;33.55;28.82;98936.25;5074934;28;20102;-78
2022/07/02 10:16:22;;;;;;;6.03;5.53;;;;;;;33.31;28.79;98944.66;5075238;28;20040;-78
2022/07/02 10:18:49;;;;;;;6.22;5.63;;;;;;;33.48;28.91;98950.81;5074761;28;20485;-78
2022/07/02 10:21:26;;;;;;;7.18;6.53;;;;;;;33.45;28.19;98949.69;5081280;28;20097;-78
2022/07/02 10:23:52;;;;;;;5.90;5.32;;;;;;;33.33;28.63;98951.47;5095216;28;20073;-78
2022/07/02 10:26:22;;;;;;;6.70;5.50;;;;;;;33.27;28.53;98947.69;5094556;28;20052;-78
2022/07/02 10:28:50;;;;;;;4.82;4.32;;;;;;;32.37;29.67;98953.28;5094923;28;20472;-78
2022/07/02 10:31:21;;;;;;;8.43;7.63;;;;;;;32.13;29.95;98957.94;5094877;28;20115;-78
2022/07/02 10:34:05;;;;;;;6.90;6.30;;;;;;;32.19;30.22;98956.06;5077101;28;20040;-78
2022/07/02 10:36:33;;;;;;;10.45;9.35;;;;;;;32.64;29.68;98962.69;5094841;28;20028;-78
2022/07/02 10:39:02;;;;;;;7.35;6.65;;;;;;;32.94;29.02;98963.00;5060132;28;20036;-78
2022/07/02 10:41:31;;;;;;;7.30;6.60;;;;;;;33.07;28.76;98963.69;5074776;28;20024;-78
2022/07/02 10:44:02;;;;;;;6.75;6.03;;;;;;;33.59;28.46;98971.06;5074579;28;20029;-78
2022/07/02 10:46:36;;;;;;;7.20;6.30;;;;;;;33.33;28.37;98964.91;5073808;28;20119;-78
2022/07/02 10:49:05;;;;;;;9.98;6.47;;;;;;;33.30;28.41;98963.03;5074520;28;20029;-78
2022/07/02 10:51:46;;;;;;;8.93;5.65;;;;;;;33.34;28.57;98970.13;5078876;28;20024;-78
2022/07/02 10:54:17;;;;;;;6.55;5.95;;;;;;;33.43;28.39;98975.81;5092240;28;20024;-78
2022/07/02 10:56:54;;;;;;;6.32;5.72;;;;;;;33.10;28.56;98969.19;5074181;28;20052;-78
2022/07/02 10:59:33;;;;;;;7.72;6.95;;;;;;;32.57;29.38;98977.22;5074035;28;20040;-78
2022/07/02 11:02:11;;;;;;;5.68;5.18;;;;;;;33.10;28.63;98979.78;5073759;28;20476;-78
2022/07/02 11:04:38;;;;;;;5.32;4.82;;;;;;;33.24;28.60;98965.72;5074289;28;20036;-78
2022/07/02 11:07:15;;;;;;;5.18;4.70;;;;;;;33.50;28.42;98971.03;5073962;28;20052;-78
2022/07/02 11:09:51;;;;;;;6.30;5.70;;;;;;;33.46;28.20;98970.44;5074156;28;20111;-78
2022/07/02 11:12:26;;;;;;;6.82;5.80;;;;;;;33.46;28.35;98981.81;5084154;28;20035;-78
2022/07/02 11:14:56;;;;;;;6.50;4.60;;;;;;;33.84;27.92;98984.94;5109925;28;20468;-78
2022/07/02 11:17:26;;;;;;;9.82;7.45;;;;;;;34.00;27.35;98973.16;5093881;28;20039;-78
2022/07/02 11:19:56;;;;;;;9.65;7.43;;;;;;;33.87;27.26;98966.84;5094016;28;20450;-78
2022/07/02 11:22:22;;;;;;;7.68;6.95;;;;;;;33.20;28.39;98992.75;5085736;28;20036;-78
2022/07/02 11:24:53;;;;;;;8.00;7.30;;;;;;;33.03;29.02;98978.06;5074037;28;20450;-77
2022/07/02 11:27:21;;;;;;;8.88;6.90;;;;;;;33.65;28.65;98983.41;5073501;28;20039;-78
2022/07/02 11:30:01;;;;;;;7.97;7.20;;;;;;;33.70;28.22;98982.75;5087506;28;20051;-78
2022/07/02 11:32:36;;;;;;;9.27;6.78;;;;;;;33.12;28.88;98980.91;5093806;28;20043;-78
2022/07/02 11:35:10;;;;;;;7.65;7.00;;;;;;;33.09;28.99;98981.06;5093596;28;20024;-78
2022/07/02 11:37:36;;;;;;;7.72;7.03;;;;;;;33.16;28.69;98977.91;5093714;28;20052;-78
2022/07/02 11:40:03;;;;;;;7.88;7.07;;;;;;;33.43;28.20;98978.66;5093957;28;20062;-78
2022/07/02 11:42:36;;;;;;;6.75;6.05;;;;;;;33.13;28.34;98988.19;5086231;28;20039;-78
2022/07/02 11:45:08;;;;;;;6.45;5.85;;;;;;;33.14;28.98;98988.97;5088068;28;20107;-78
2022/07/02 11:47:46;;;;;;;5.28;4.72;;;;;;;33.69;28.03;98984.81;5084419;28;20024;-78